KFFL

Details ICAO KFFL
Name FAIRFIELD MUNI
Region United States
Timezone America/Chicago (UTC-5.0)
Plans Departing 9
Arriving 13
Stats Elevation 799 ft / 244 m (AMSL)
Location 41.053538° -91.982016°
Runways 2
Magnetic Variation 0.451° W
Sunrise 2018-05-25 10:43:14 UTC / 2018-05-25 05:43:14 Local
Sunset 2018-05-26 01:29:25 UTC / 2018-05-25 20:29:25 Local
Advertisement - Login to hide

Runways

ID Width Length Bearing (true) Bearing (mag) Surface Threshold Offset Overrun Length
08 165 ft / 50 m 2,445 ft / 745 m 86.43° 86.88° Dirt 0 ft / 0 m 0 ft / 0 m
18 75 ft / 23 m 4,007 ft / 1,221 m 179.64° 180.09° Asphalt 0 ft / 0 m 0 ft / 0 m
26 165 ft / 50 m 2,445 ft / 745 m 266.43° 266.88° Dirt 0 ft / 0 m 0 ft / 0 m
36 75 ft / 23 m 4,007 ft / 1,221 m 359.64° 0.09° Asphalt 0 ft / 0 m 0 ft / 0 m

Map

Weather


0- 5 10 15 20 25 30 35+ Temperature / ° C

Clouds and Precipitation
Forecast for 2018-05-25 12:00 UTC. Updated 2 hours ago

Ground ~20,000 ft ~40,000 ft Winds

METAR

KFFL 251055Z AUTO 00000KT 10SM SCT120 BKN140 OVC180 21/17 A2990 RMK AO2 PWINO

TAF

Not found

Frequencies

Recorded 132.02 MHz AWOS 3
Unicom 122.70 MHz CTAF/UNICOM
Warning: Do not use this data for real-world aviation or navigation. No guarantee of current accuracy is given.